createdAt,value
2024-03-21T00:00:18.440Z,100598.64
2024-03-21T00:05:41.409Z,100596.77
2024-03-21T00:10:44.345Z,100591.77
2024-03-21T00:15:47.212Z,100588.83
2024-03-21T00:20:50.525Z,100585.20
2024-03-21T00:25:53.433Z,100579.67
2024-03-21T00:30:57.818Z,100573.95
2024-03-21T00:36:00.677Z,100576.88
2024-03-21T00:41:03.593Z,100571.30
2024-03-21T00:46:06.588Z,100570.96
2024-03-21T00:51:10.545Z,100563.16
2024-03-21T00:56:13.530Z,100558.66
2024-03-21T01:01:16.636Z,100547.38
2024-03-21T01:06:19.534Z,100535.42
2024-03-21T01:11:22.553Z,100533.17
2024-03-21T01:16:27.083Z,100534.24
2024-03-21T01:21:30.908Z,100528.87
2024-03-21T01:26:33.813Z,100524.19
2024-03-21T01:31:36.614Z,100524.70
2024-03-21T01:36:47.204Z,100514.98
2024-03-21T01:41:50.102Z,100516.52
2024-03-21T01:46:53.378Z,100512.86
2024-03-21T01:51:56.326Z,100496.00
2024-03-21T01:56:59.346Z,100497.37
2024-03-21T02:02:02.238Z,100503.77
2024-03-21T02:07:05.746Z,100501.68
2024-03-21T02:12:10.083Z,100493.35
2024-03-21T02:17:12.995Z,100487.95
2024-03-21T02:22:34.531Z,100487.05
2024-03-21T02:27:39.019Z,100478.16
2024-03-21T02:32:41.877Z,100480.38
2024-03-21T02:37:44.781Z,100476.53
2024-03-21T02:42:48.634Z,100466.40
2024-03-21T02:47:51.508Z,100468.58
2024-03-21T02:52:54.376Z,100464.38
2024-03-21T02:57:57.434Z,100463.97
2024-03-21T03:03:00.538Z,100457.35
2024-03-21T03:08:03.543Z,100460.98
2024-03-21T03:13:06.547Z,100460.80
2024-03-21T03:18:09.347Z,100465.15
2024-03-21T03:23:13.068Z,100462.75
2024-03-21T03:28:15.979Z,100461.73
2024-03-21T03:33:37.413Z,100454.11
2024-03-21T03:38:40.315Z,100457.42
2024-03-21T03:43:43.730Z,100465.09
2024-03-21T03:48:46.642Z,100467.00
2024-03-21T03:53:50.774Z,100463.38
2024-03-21T03:58:53.703Z,100463.88
2024-03-21T04:03:56.586Z,100445.52
2024-03-21T04:08:59.481Z,100443.27
2024-03-21T04:14:02.488Z,100453.86
2024-03-21T04:19:05.398Z,100456.64
2024-03-21T04:24:08.294Z,100456.45
2024-03-21T04:29:11.100Z,100464.27
2024-03-21T04:34:15.937Z,100464.27
2024-03-21T04:39:19.558Z,100470.54
2024-03-21T04:44:22.471Z,100471.44
2024-03-21T04:49:25.376Z,100465.22
2024-03-21T04:54:28.390Z,100465.41
2024-03-21T04:59:57.547Z,100463.54
2024-03-21T05:05:04.445Z,100475.19
2024-03-21T05:10:08.268Z,100472.28
2024-03-21T05:15:11.126Z,100473.36
2024-03-21T05:20:14.232Z,100476.34
2024-03-21T05:25:17.456Z,100469.62
2024-03-21T05:30:20.347Z,100469.98
2024-03-21T05:35:23.924Z,100470.52
2024-03-21T05:40:26.781Z,100473.31
2024-03-21T05:45:29.571Z,100475.42
2024-03-21T05:50:32.416Z,100469.89
2024-03-21T05:55:35.497Z,100470.27
2024-03-21T06:00:38.388Z,100471.17
2024-03-21T06:05:41.798Z,100473.65
2024-03-21T06:10:44.613Z,100472.83
2024-03-21T06:15:47.684Z,100470.60
2024-03-21T06:20:50.517Z,100464.90
2024-03-21T06:25:54.053Z,100464.94
2024-03-21T06:30:56.837Z,100462.50
2024-03-21T06:35:59.736Z,100460.60
2024-03-21T06:41:02.577Z,100459.91
2024-03-21T06:46:05.557Z,100458.37
2024-03-21T06:51:09.299Z,100453.15
2024-03-21T06:56:12.377Z,100452.98
2024-03-21T07:01:15.390Z,100448.31
2024-03-21T07:06:18.288Z,100446.75
2024-03-21T07:11:21.295Z,100448.83
2024-03-21T07:16:24.508Z,100453.52
2024-03-21T07:21:28.551Z,100455.42
2024-03-21T07:26:31.442Z,100449.33
2024-03-21T07:31:34.343Z,100448.98
2024-03-21T07:36:37.252Z,100439.92
2024-03-21T07:41:40.357Z,100440.27
2024-03-21T07:46:43.401Z,100442.69
2024-03-21T07:51:46.370Z,100444.77
2024-03-21T07:56:49.377Z,100439.37
2024-03-21T08:01:52.800Z,100440.91
2024-03-21T08:06:58.772Z,100441.55
2024-03-21T08:12:01.676Z,100441.86
2024-03-21T08:17:05.070Z,100441.98
2024-03-21T08:22:08.002Z,100447.83
2024-03-21T08:27:10.896Z,100443.42
2024-03-21T08:32:14.394Z,100438.30
2024-03-21T08:37:17.329Z,100441.55
2024-03-21T08:42:20.244Z,100442.89
2024-03-21T08:47:23.849Z,100443.90
2024-03-21T08:52:26.750Z,100442.75
2024-03-21T08:57:32.947Z,100439.48
2024-03-21T09:02:35.948Z,100441.95
2024-03-21T09:07:39.157Z,100439.93
2024-03-21T09:12:45.265Z,100435.09
2024-03-21T09:17:48.244Z,100435.45
2024-03-21T09:22:51.591Z,100434.06
2024-03-21T09:27:54.551Z,100425.52
2024-03-21T09:32:57.483Z,100417.70
2024-03-21T09:38:00.480Z,100416.81
2024-03-21T09:43:07.338Z,100413.70
2024-03-21T09:48:10.474Z,100410.42
2024-03-21T09:53:17.483Z,100405.36
2024-03-21T09:58:20.629Z,100397.98
2024-03-21T10:03:24.718Z,100389.61
2024-03-21T10:08:28.382Z,100387.93
2024-03-21T10:13:31.243Z,100389.77
2024-03-21T10:18:34.064Z,100386.27
2024-03-21T10:23:37.069Z,100386.23
2024-03-21T10:28:40.407Z,100391.77
2024-03-21T10:33:45.981Z,100390.66
2024-03-21T10:38:49.711Z,100388.01
2024-03-21T10:43:58.036Z,100382.61
2024-03-21T10:49:01.511Z,100374.20
2024-03-21T10:54:04.716Z,100371.73
2024-03-21T10:59:08.061Z,100367.47
2024-03-21T11:04:12.263Z,100367.15
2024-03-21T11:09:16.403Z,100369.47
2024-03-21T11:14:20.428Z,100367.77
2024-03-21T11:19:23.801Z,100357.84
2024-03-21T11:24:27.054Z,100353.08
2024-03-21T11:29:31.004Z,100349.39
2024-03-21T11:34:34.200Z,100348.14
2024-03-21T11:39:40.989Z,100341.96
2024-03-21T11:44:45.991Z,100332.52
2024-03-21T11:49:52.809Z,100332.64
2024-03-21T11:54:56.044Z,100327.58
2024-03-21T11:59:59.165Z,100327.40
2024-03-21T12:05:04.268Z,100321.06
2024-03-21T12:10:08.339Z,100317.98
2024-03-21T12:15:15.026Z,100311.98
2024-03-21T12:20:17.945Z,100303.35
2024-03-21T12:25:20.949Z,100300.07
2024-03-21T12:30:24.163Z,100295.95
2024-03-21T12:35:27.062Z,100289.25
2024-03-21T12:40:30.480Z,100285.55
2024-03-21T12:45:33.386Z,100275.77
2024-03-21T12:50:36.644Z,100268.05
2024-03-21T12:55:40.015Z,100254.01
2024-03-21T13:00:45.646Z,100249.00
2024-03-21T13:05:49.326Z,100241.88
2024-03-21T13:10:52.593Z,100237.38
2024-03-21T13:15:56.756Z,100228.03
2024-03-21T13:20:59.656Z,100229.67
2024-03-21T13:26:03.373Z,100231.08
2024-03-21T13:31:06.600Z,100226.18
2024-03-21T13:36:11.528Z,100215.20
2024-03-21T13:41:15.009Z,100213.79
2024-03-21T13:46:18.281Z,100205.77
2024-03-21T13:51:21.180Z,100202.37
2024-03-21T13:56:24.401Z,100186.60
2024-03-21T14:01:28.121Z,100177.39
2024-03-21T14:06:31.531Z,100176.03
2024-03-21T14:11:34.640Z,100171.06
2024-03-21T14:16:38.377Z,100170.58
2024-03-21T14:21:42.019Z,100168.66
2024-03-21T14:26:44.978Z,100164.84
2024-03-21T14:31:48.203Z,100153.70
2024-03-21T14:36:51.719Z,100148.48
2024-03-21T14:41:59.271Z,100145.19
2024-03-21T14:47:02.135Z,100148.31
2024-03-21T14:52:06.070Z,100141.00
2024-03-21T14:57:09.492Z,100134.22
2024-03-21T15:02:14.857Z,100132.02
2024-03-21T15:07:17.856Z,100133.45
2024-03-21T15:12:21.068Z,100132.31
2024-03-21T15:17:25.027Z,100128.55
2024-03-21T15:22:29.439Z,100127.05
2024-03-21T15:27:32.643Z,100124.81
2024-03-21T15:32:36.118Z,100135.29
2024-03-21T15:37:39.179Z,100134.08
2024-03-21T15:42:42.267Z,100130.10
2024-03-21T15:47:45.400Z,100124.64
2024-03-21T15:52:48.410Z,100120.59
2024-03-21T15:57:51.290Z,100124.06
2024-03-21T16:02:56.781Z,100127.87
2024-03-21T16:07:59.979Z,100130.80
2024-03-21T16:13:03.106Z,100128.16
2024-03-21T16:18:06.706Z,100127.95
2024-03-21T16:23:11.754Z,100128.10
2024-03-21T16:28:14.761Z,100127.77
2024-03-21T16:33:18.590Z,100128.27
2024-03-21T16:38:25.587Z,100126.03
2024-03-21T16:43:28.498Z,100125.55
2024-03-21T16:48:31.506Z,100122.95
2024-03-21T16:53:34.608Z,100117.88
2024-03-21T16:58:37.613Z,100112.64
2024-03-21T17:03:40.614Z,100108.60
2024-03-21T17:08:44.238Z,100106.84
2024-03-21T17:13:47.354Z,100116.38
2024-03-21T17:18:50.260Z,100117.92
2024-03-21T17:23:53.259Z,100121.39
2024-03-21T17:28:57.906Z,100120.67
2024-03-21T17:34:04.914Z,100118.23
2024-03-21T17:39:07.911Z,100129.56
2024-03-21T17:44:10.925Z,100146.65
2024-03-21T17:49:14.042Z,100137.60
2024-03-21T17:54:17.234Z,100135.67
2024-03-21T17:59:26.182Z,100139.34
2024-03-21T18:04:30.435Z,100138.44
2024-03-21T18:09:33.637Z,100135.11
2024-03-21T18:14:38.278Z,100143.98
2024-03-21T18:19:42.605Z,100134.02
2024-03-21T18:24:46.849Z,100133.48
2024-03-21T18:29:50.056Z,100135.20
2024-03-21T18:34:53.271Z,100143.38
2024-03-21T18:39:56.595Z,100143.73
2024-03-21T18:44:59.804Z,100138.84
2024-03-21T18:50:03.213Z,100143.38
2024-03-21T18:55:07.103Z,100147.56
2024-03-21T19:00:11.180Z,100149.81
2024-03-21T19:05:14.177Z,100155.41
2024-03-21T19:10:17.403Z,100158.39
2024-03-21T19:15:20.402Z,100160.35
2024-03-21T19:20:23.609Z,100159.70
2024-03-21T19:25:27.252Z,100163.40
2024-03-21T19:30:32.205Z,100163.07
2024-03-21T19:35:35.602Z,100167.84
2024-03-21T19:40:38.603Z,100167.04
2024-03-21T19:45:42.434Z,100168.27
2024-03-21T19:50:46.252Z,100161.16
2024-03-21T19:56:01.972Z,100154.79
2024-03-21T20:01:10.702Z,100150.50
2024-03-21T20:06:14.786Z,100148.95
2024-03-21T20:11:17.903Z,100153.50
2024-03-21T20:16:20.852Z,100158.07
2024-03-21T20:21:24.554Z,100155.98
2024-03-21T20:26:27.820Z,100158.65
2024-03-21T20:31:30.900Z,100157.45
2024-03-21T20:36:33.906Z,100161.30
2024-03-21T20:41:36.786Z,100172.83
2024-03-21T20:46:39.996Z,100178.06
2024-03-21T20:51:43.021Z,100185.55
2024-03-21T20:56:46.022Z,100184.72
2024-03-21T21:01:49.144Z,100191.40
2024-03-21T21:06:52.384Z,100188.46
2024-03-21T21:11:55.884Z,100198.73
2024-03-21T21:16:59.793Z,100192.85
2024-03-21T21:22:03.128Z,100195.48
2024-03-21T21:27:06.215Z,100196.05
2024-03-21T21:32:09.321Z,100194.33
2024-03-21T21:37:12.431Z,100198.35
2024-03-21T21:42:15.334Z,100196.27
2024-03-21T21:47:19.446Z,100195.23
2024-03-21T21:52:22.890Z,100197.86
2024-03-21T21:57:27.530Z,100195.61
2024-03-21T22:02:30.480Z,100193.33
2024-03-21T22:07:33.648Z,100195.45
2024-03-21T22:12:36.453Z,100202.27
2024-03-21T22:17:39.356Z,100214.47
2024-03-21T22:22:42.361Z,100212.39
2024-03-21T22:27:45.468Z,100211.73
2024-03-21T22:32:49.499Z,100208.09
2024-03-21T22:37:52.509Z,100206.54
2024-03-21T22:42:55.626Z,100199.25
2024-03-21T22:47:58.619Z,100202.04
2024-03-21T22:53:01.546Z,100200.30
2024-03-21T22:58:04.804Z,100203.45
2024-03-21T23:03:08.256Z,100212.38
2024-03-21T23:08:11.468Z,100219.03
2024-03-21T23:13:14.472Z,100217.87
2024-03-21T23:18:17.790Z,100215.13
2024-03-21T23:23:20.723Z,100210.98
2024-03-21T23:28:23.900Z,100202.34
2024-03-21T23:33:26.802Z,100205.85
2024-03-21T23:38:29.722Z,100208.85
2024-03-21T23:43:32.878Z,100206.77
2024-03-21T23:48:37.068Z,100205.55
2024-03-21T23:53:41.798Z,100201.56
2024-03-21T23:58:44.703Z,100201.58
